createdAt,value
2018-08-22T00:00:19.248Z,20.91
2018-08-22T00:01:19.166Z,20.77
2018-08-22T00:03:11.936Z,20.91
2018-08-22T00:04:11.854Z,20.87
2018-08-22T00:06:04.624Z,20.85
2018-08-22T00:07:04.533Z,20.85
2018-08-22T00:08:57.562Z,20.80
2018-08-22T00:09:57.461Z,20.72
2018-08-22T00:11:50.455Z,20.66
2018-08-22T00:12:50.377Z,20.64
2018-08-22T00:14:43.947Z,20.51
2018-08-22T00:15:43.863Z,20.54
2018-08-22T00:17:36.629Z,20.54
2018-08-22T00:18:36.548Z,20.51
2018-08-22T00:20:29.327Z,20.51
2018-08-22T00:21:29.235Z,20.50
2018-08-22T00:23:22.000Z,20.52
2018-08-22T00:24:21.917Z,20.57
2018-08-22T00:26:14.672Z,20.50
2018-08-22T00:27:14.598Z,20.42
2018-08-22T00:29:07.414Z,20.36
2018-08-22T00:30:07.285Z,20.32
2018-08-22T00:32:00.046Z,20.36
2018-08-22T00:32:59.967Z,20.35
2018-08-22T00:34:54.014Z,20.21
2018-08-22T00:35:53.933Z,20.20
2018-08-22T00:37:46.993Z,20.13
2018-08-22T00:38:46.918Z,20.17
2018-08-22T00:40:39.683Z,20.13
2018-08-22T00:41:39.604Z,20.10
2018-08-22T00:43:32.380Z,20.01
2018-08-22T00:44:32.290Z,19.95
2018-08-22T00:46:25.250Z,20.01
2018-08-22T00:47:25.173Z,20.05
2018-08-22T00:49:17.939Z,19.99
2018-08-22T00:50:17.854Z,19.94
2018-08-22T00:52:10.825Z,19.94
2018-08-22T00:53:10.750Z,19.94
2018-08-22T00:55:03.526Z,20.01
2018-08-22T00:56:03.440Z,20.16
2018-08-22T00:57:56.433Z,20.06
2018-08-22T00:58:56.348Z,20.06
2018-08-22T01:00:49.123Z,20.01
2018-08-22T01:01:49.044Z,20.01
2018-08-22T01:03:41.930Z,19.84
2018-08-22T01:04:41.845Z,19.86
2018-08-22T01:06:34.601Z,19.73
2018-08-22T01:07:34.529Z,19.77
2018-08-22T01:09:27.290Z,19.76
2018-08-22T01:10:27.209Z,19.68
2018-08-22T01:12:19.971Z,19.74
2018-08-22T01:13:19.896Z,19.76
2018-08-22T01:15:12.665Z,19.78
2018-08-22T01:16:12.580Z,19.71
2018-08-22T01:18:05.348Z,19.68
2018-08-22T01:19:05.268Z,19.73
2018-08-22T01:20:58.267Z,19.88
2018-08-22T01:21:58.189Z,19.87
2018-08-22T01:23:51.232Z,19.87
2018-08-22T01:24:51.147Z,19.87
2018-08-22T01:26:44.142Z,19.84
2018-08-22T01:27:44.064Z,19.88
2018-08-22T01:29:36.833Z,19.86
2018-08-22T01:30:36.751Z,19.91
2018-08-22T01:32:29.522Z,19.87
2018-08-22T01:33:29.441Z,19.87
2018-08-22T01:35:22.216Z,19.78
2018-08-22T01:36:22.139Z,19.87
2018-08-22T01:38:14.898Z,19.78
2018-08-22T01:39:14.815Z,19.74
2018-08-22T01:41:07.570Z,19.76
2018-08-22T01:42:07.491Z,19.62
2018-08-22T01:44:00.256Z,19.69
2018-08-22T01:45:00.176Z,19.62
2018-08-22T01:46:52.928Z,19.66
2018-08-22T01:47:52.854Z,19.58
2018-08-22T01:49:45.865Z,19.58
2018-08-22T01:50:45.784Z,19.58
2018-08-22T01:52:38.562Z,19.58
2018-08-22T01:53:38.478Z,19.59
2018-08-22T01:55:31.248Z,19.68
2018-08-22T01:56:31.163Z,19.66
2018-08-22T01:58:23.921Z,19.68
2018-08-22T01:59:23.840Z,19.62
2018-08-22T02:01:16.604Z,19.69
2018-08-22T02:02:16.526Z,19.62
2018-08-22T02:04:09.299Z,19.61
2018-08-22T02:05:09.217Z,19.65
2018-08-22T02:07:01.982Z,19.58
2018-08-22T02:08:01.899Z,19.43
2018-08-22T02:09:54.914Z,19.44
2018-08-22T02:10:54.829Z,19.32
2018-08-22T02:12:47.591Z,19.41
2018-08-22T02:13:47.517Z,19.32
2018-08-22T02:15:40.281Z,19.36
2018-08-22T02:16:40.197Z,19.26
2018-08-22T02:18:32.970Z,19.31
2018-08-22T02:19:32.879Z,19.28
2018-08-22T02:20:32.809Z,19.37
2018-08-22T02:21:32.737Z,19.32
2018-08-22T02:22:32.668Z,19.31
2018-08-22T02:23:32.599Z,19.31
2018-08-22T02:24:32.528Z,19.18
2018-08-22T02:25:32.456Z,19.19
2018-08-22T02:26:32.380Z,19.21
2018-08-22T02:27:32.315Z,19.18
2018-08-22T02:28:32.246Z,19.18
2018-08-22T02:29:32.172Z,19.29
2018-08-22T02:30:32.102Z,19.28
2018-08-22T02:31:32.033Z,19.33
2018-08-22T02:32:31.965Z,19.26
2018-08-22T02:33:31.889Z,19.21
2018-08-22T02:34:31.818Z,19.19
2018-08-22T02:35:31.763Z,19.28
2018-08-22T02:36:31.680Z,19.16
2018-08-22T02:37:31.606Z,19.14
2018-08-22T02:38:31.535Z,19.14
2018-08-22T02:39:31.468Z,19.11
2018-08-22T02:40:31.395Z,19.14
2018-08-22T02:41:31.325Z,19.14
2018-08-22T02:42:31.252Z,19.07
2018-08-22T02:43:31.180Z,19.11
2018-08-22T02:44:31.110Z,19.04
2018-08-22T02:45:31.045Z,18.98
2018-08-22T02:46:30.965Z,18.98
2018-08-22T02:47:30.905Z,19.06
2018-08-22T02:48:30.827Z,18.95
2018-08-22T02:49:30.757Z,19.00
2018-08-22T02:50:30.687Z,19.02
2018-08-22T02:51:30.642Z,18.90
2018-08-22T02:52:30.544Z,19.06
2018-08-22T02:53:30.475Z,18.91
2018-08-22T02:54:30.403Z,18.92
2018-08-22T02:55:30.333Z,18.88
2018-08-22T02:56:30.259Z,18.99
2018-08-22T02:57:30.189Z,18.94
2018-08-22T02:58:30.122Z,18.95
2018-08-22T02:59:30.047Z,18.90
2018-08-22T03:00:29.984Z,18.92
2018-08-22T03:01:29.904Z,18.88
2018-08-22T03:02:29.833Z,18.91
2018-08-22T03:03:29.762Z,18.92
2018-08-22T03:04:29.694Z,18.90
2018-08-22T03:05:29.619Z,18.92
2018-08-22T03:06:29.552Z,18.92
2018-08-22T03:07:29.482Z,18.94
2018-08-22T03:08:29.409Z,18.90
2018-08-22T03:09:29.338Z,18.82
2018-08-22T03:10:29.269Z,18.91
2018-08-22T03:11:29.196Z,18.95
2018-08-22T03:12:29.124Z,18.98
2018-08-22T03:13:29.054Z,18.91
2018-08-22T03:14:28.982Z,18.88
2018-08-22T03:15:28.918Z,18.87
2018-08-22T03:16:28.850Z,18.84
2018-08-22T03:17:28.771Z,18.90
2018-08-22T03:18:28.699Z,18.88
2018-08-22T03:19:28.629Z,18.88
2018-08-22T03:20:28.557Z,18.95
2018-08-22T03:21:28.484Z,18.88
2018-08-22T03:22:28.418Z,18.87
2018-08-22T03:23:28.343Z,18.98
2018-08-22T03:24:28.281Z,18.91
2018-08-22T03:25:28.203Z,18.92
2018-08-22T03:26:28.143Z,18.90
2018-08-22T03:27:28.065Z,18.99
2018-08-22T03:28:27.989Z,18.91
2018-08-22T03:29:27.916Z,18.90
2018-08-22T03:30:27.841Z,18.87
2018-08-22T03:31:27.778Z,18.82
2018-08-22T03:32:27.710Z,18.78
2018-08-22T03:33:27.637Z,18.73
2018-08-22T03:34:27.563Z,18.75
2018-08-22T03:35:27.491Z,18.69
2018-08-22T03:36:27.418Z,18.69
2018-08-22T03:37:27.348Z,18.66
2018-08-22T03:38:27.279Z,18.72
2018-08-22T03:39:27.214Z,18.75
2018-08-22T03:40:27.133Z,18.72
2018-08-22T03:41:27.062Z,18.75
2018-08-22T03:42:26.992Z,18.69
2018-08-22T03:43:26.922Z,18.72
2018-08-22T03:44:26.849Z,18.70
2018-08-22T03:45:26.774Z,18.76
2018-08-22T03:46:26.708Z,18.76
2018-08-22T03:47:26.639Z,18.73
2018-08-22T03:48:26.567Z,18.78
2018-08-22T03:49:26.494Z,18.80
2018-08-22T03:50:26.423Z,18.75
2018-08-22T03:51:26.354Z,18.73
2018-08-22T03:52:26.284Z,18.76
2018-08-22T03:53:26.214Z,18.81
2018-08-22T03:54:26.143Z,18.81
2018-08-22T03:55:26.065Z,18.81
2018-08-22T03:56:25.996Z,18.70
2018-08-22T03:57:25.924Z,18.75
2018-08-22T03:58:25.865Z,18.73
2018-08-22T03:59:25.789Z,18.69
2018-08-22T04:00:25.710Z,18.69
2018-08-22T04:01:25.639Z,18.69
2018-08-22T04:02:25.569Z,18.69
2018-08-22T04:03:25.497Z,18.55
2018-08-22T04:04:25.438Z,18.70
2018-08-22T04:05:25.356Z,18.60
2018-08-22T04:06:25.286Z,18.63
2018-08-22T04:07:25.212Z,18.60
2018-08-22T04:08:25.141Z,18.57
2018-08-22T04:09:25.071Z,18.65
2018-08-22T04:10:24.999Z,18.67
2018-08-22T04:11:24.927Z,18.63
2018-08-22T04:12:24.857Z,18.62
2018-08-22T04:13:24.784Z,18.63
2018-08-22T04:14:24.714Z,18.58
2018-08-22T04:15:24.647Z,18.69
2018-08-22T04:16:24.573Z,18.66
2018-08-22T04:17:24.500Z,18.67
2018-08-22T04:18:24.430Z,18.63
2018-08-22T04:19:24.359Z,18.70
2018-08-22T04:20:24.284Z,18.63
2018-08-22T04:21:24.214Z,18.65
2018-08-22T04:22:24.144Z,18.63
2018-08-22T04:23:24.073Z,18.66
2018-08-22T04:24:24.027Z,18.67
2018-08-22T04:25:23.933Z,18.67
2018-08-22T04:26:23.858Z,18.58
2018-08-22T04:27:23.786Z,18.63
2018-08-22T04:28:23.715Z,18.67
2018-08-22T04:29:23.645Z,18.76
2018-08-22T04:30:23.574Z,18.66
2018-08-22T04:31:23.502Z,18.66
2018-08-22T04:32:23.451Z,18.75
2018-08-22T04:33:23.362Z,18.70
2018-08-22T04:34:23.291Z,18.62
2018-08-22T04:35:23.218Z,18.72
2018-08-22T04:36:23.146Z,18.65
2018-08-22T04:37:23.096Z,18.69
2018-08-22T04:38:23.000Z,18.69
2018-08-22T04:39:22.931Z,18.60
2018-08-22T04:40:22.858Z,18.63
2018-08-22T04:41:22.790Z,18.63
2018-08-22T04:42:22.717Z,18.60
2018-08-22T04:43:22.656Z,18.70
2018-08-22T04:44:22.569Z,18.65
2018-08-22T04:45:22.508Z,18.67
2018-08-22T04:46:22.436Z,18.67
2018-08-22T04:47:22.361Z,18.62
2018-08-22T04:48:22.290Z,18.52
2018-08-22T04:49:22.218Z,18.52
2018-08-22T04:50:22.148Z,18.57
2018-08-22T04:51:22.075Z,18.60
2018-08-22T04:52:22.003Z,18.57
2018-08-22T04:53:21.939Z,18.54
2018-08-22T04:54:21.861Z,18.54
2018-08-22T04:55:21.793Z,18.48
2018-08-22T04:56:21.720Z,18.44
2018-08-22T04:57:21.648Z,18.55
2018-08-22T04:58:21.588Z,18.52
2018-08-22T04:59:21.519Z,18.51
2018-08-22T05:00:21.432Z,18.54
2018-08-22T05:01:21.370Z,18.63
2018-08-22T05:02:21.293Z,18.52
2018-08-22T05:03:21.220Z,18.52
2018-08-22T05:04:21.152Z,18.54
2018-08-22T05:05:21.078Z,18.54
2018-08-22T05:06:21.011Z,18.58
2018-08-22T05:07:20.935Z,18.52
2018-08-22T05:08:20.867Z,18.51
2018-08-22T05:09:20.850Z,18.47
2018-08-22T05:10:20.743Z,18.51
2018-08-22T05:11:20.649Z,18.50
2018-08-22T05:12:20.577Z,18.50
2018-08-22T05:13:20.506Z,18.58
2018-08-22T05:14:20.439Z,18.52
2018-08-22T05:15:20.364Z,18.54
2018-08-22T05:16:20.291Z,18.51
2018-08-22T05:17:20.219Z,18.55
2018-08-22T05:18:20.150Z,18.54
2018-08-22T05:19:20.082Z,18.60
2018-08-22T05:20:20.003Z,18.55
2018-08-22T05:21:19.937Z,18.60
2018-08-22T05:22:19.866Z,18.58
2018-08-22T05:23:19.790Z,18.63
2018-08-22T05:24:19.720Z,18.66
2018-08-22T05:25:19.648Z,18.63
2018-08-22T05:26:19.580Z,18.70
2018-08-22T05:27:19.521Z,18.73
2018-08-22T05:28:19.435Z,18.78
2018-08-22T05:29:19.367Z,18.72
2018-08-22T05:30:19.364Z,18.70
2018-08-22T05:31:19.221Z,18.73
2018-08-22T05:32:19.150Z,18.82
2018-08-22T05:33:19.087Z,18.75
2018-08-22T05:34:19.011Z,18.80
2018-08-22T05:35:18.938Z,18.84
2018-08-22T05:36:18.866Z,18.82
2018-08-22T05:37:18.799Z,18.87
2018-08-22T05:38:18.722Z,18.90
2018-08-22T05:39:18.656Z,18.90
2018-08-22T05:40:18.577Z,18.90
2018-08-22T05:41:18.511Z,18.90
2018-08-22T05:42:18.435Z,19.00
2018-08-22T05:43:18.368Z,19.00
2018-08-22T05:44:18.295Z,19.00
2018-08-22T05:45:18.225Z,19.10
2018-08-22T05:46:18.154Z,19.13
2018-08-22T05:47:18.086Z,19.22
2018-08-22T05:48:18.009Z,19.29
2018-08-22T05:49:18.019Z,19.41
2018-08-22T05:50:17.868Z,19.32
2018-08-22T05:51:17.793Z,19.46
2018-08-22T05:52:17.733Z,19.43
2018-08-22T05:53:17.656Z,19.39
2018-08-22T05:54:17.579Z,19.32
2018-08-22T05:55:17.514Z,19.29
2018-08-22T05:56:17.444Z,19.36
2018-08-22T05:57:17.371Z,19.33
2018-08-22T05:58:17.301Z,19.33
2018-08-22T05:59:17.226Z,19.28
2018-08-22T06:00:17.162Z,19.33
2018-08-22T06:01:17.094Z,19.32
2018-08-22T06:02:17.017Z,19.39
2018-08-22T06:03:16.989Z,19.40
2018-08-22T06:04:16.875Z,19.61
2018-08-22T06:05:16.805Z,19.66
2018-08-22T06:06:16.736Z,19.58
2018-08-22T06:07:16.664Z,19.56
2018-08-22T06:08:16.595Z,19.55
2018-08-22T06:09:16.551Z,19.59
2018-08-22T06:10:16.458Z,19.56
2018-08-22T06:11:16.412Z,19.58
2018-08-22T06:12:16.312Z,19.65
2018-08-22T06:13:16.238Z,19.76
2018-08-22T06:14:16.172Z,19.84
2018-08-22T06:15:16.100Z,19.84
2018-08-22T06:16:16.026Z,19.98
2018-08-22T06:17:15.956Z,19.98
2018-08-22T06:18:15.888Z,19.98
2018-08-22T06:19:15.817Z,19.98
2018-08-22T06:20:15.749Z,20.02
2018-08-22T06:21:15.673Z,19.96
2018-08-22T06:22:15.603Z,19.98
2018-08-22T06:23:15.532Z,20.01
2018-08-22T06:24:15.464Z,20.11
2018-08-22T06:25:15.393Z,20.17
2018-08-22T06:26:15.322Z,20.05
2018-08-22T06:27:15.253Z,20.17
2018-08-22T06:28:15.179Z,20.18
2018-08-22T06:29:15.108Z,20.18
2018-08-22T06:30:15.040Z,20.21
2018-08-22T06:31:14.968Z,20.18
2018-08-22T06:32:14.898Z,20.20
2018-08-22T06:33:14.828Z,20.29
2018-08-22T06:34:14.757Z,20.39
2018-08-22T06:35:14.692Z,20.38
2018-08-22T06:36:14.616Z,20.39
2018-08-22T06:37:14.548Z,20.51
2018-08-22T06:38:14.476Z,20.51
2018-08-22T06:39:14.407Z,20.55
2018-08-22T06:40:14.337Z,20.61
2018-08-22T06:41:14.267Z,20.66
2018-08-22T06:42:14.197Z,20.70
2018-08-22T06:43:14.127Z,20.79
2018-08-22T06:44:14.115Z,20.80
2018-08-22T06:45:13.987Z,20.88
2018-08-22T06:46:13.914Z,20.87
2018-08-22T06:47:13.844Z,20.98
2018-08-22T06:48:13.774Z,20.94
2018-08-22T06:49:13.706Z,20.94
2018-08-22T06:50:13.658Z,20.97
2018-08-22T06:51:13.566Z,21.04
2018-08-22T06:52:13.494Z,21.10
2018-08-22T06:53:13.425Z,21.07
2018-08-22T06:54:13.358Z,21.22
2018-08-22T06:55:13.289Z,21.27
2018-08-22T06:56:13.218Z,21.29
2018-08-22T06:57:13.255Z,21.38
2018-08-22T06:58:13.074Z,21.43
2018-08-22T06:59:13.008Z,21.47
2018-08-22T07:00:12.935Z,21.53
2018-08-22T07:01:12.867Z,21.59
2018-08-22T07:02:12.796Z,21.64
2018-08-22T07:03:12.728Z,21.75
2018-08-22T07:04:12.659Z,21.71
2018-08-22T07:05:12.587Z,21.77
2018-08-22T07:06:12.517Z,21.84
2018-08-22T07:07:12.448Z,21.92
2018-08-22T07:08:12.505Z,21.88
2018-08-22T07:09:12.308Z,21.94
2018-08-22T07:10:12.242Z,21.91
2018-08-22T07:11:12.170Z,21.96
2018-08-22T07:12:12.101Z,21.91
2018-08-22T07:13:12.033Z,21.99
2018-08-22T07:14:12.003Z,21.98
2018-08-22T07:15:11.895Z,22.05
2018-08-22T07:16:11.822Z,22.14
2018-08-22T07:17:11.762Z,22.12
2018-08-22T07:18:11.683Z,22.10
2018-08-22T07:19:11.615Z,22.18
2018-08-22T07:20:11.546Z,22.24
2018-08-22T07:21:11.476Z,22.24
2018-08-22T07:22:11.409Z,22.27
2018-08-22T07:23:11.338Z,22.36
2018-08-22T07:24:11.268Z,22.33
2018-08-22T07:25:11.199Z,22.42
2018-08-22T07:26:11.131Z,22.47
2018-08-22T07:27:11.062Z,22.47
2018-08-22T07:28:10.993Z,22.51
2018-08-22T07:29:10.927Z,22.51
2018-08-22T07:30:11.008Z,22.58
2018-08-22T07:31:10.787Z,22.49
2018-08-22T07:32:10.769Z,22.52
2018-08-22T07:33:10.645Z,22.43
2018-08-22T07:34:10.578Z,22.52
2018-08-22T07:35:10.512Z,22.46
2018-08-22T07:36:10.441Z,22.55
2018-08-22T07:37:10.370Z,22.55
2018-08-22T07:38:10.302Z,22.70
2018-08-22T07:39:10.255Z,22.73
2018-08-22T07:40:10.163Z,22.75
2018-08-22T07:41:10.100Z,22.70
2018-08-22T07:42:10.025Z,22.80
2018-08-22T07:43:09.960Z,22.77
2018-08-22T07:44:09.890Z,22.77
2018-08-22T07:45:09.820Z,22.91
2018-08-22T07:46:09.752Z,23.01
2018-08-22T07:47:09.687Z,22.94
2018-08-22T07:48:09.612Z,23.00
2018-08-22T07:49:09.571Z,23.00
2018-08-22T07:50:09.537Z,23.10
2018-08-22T07:51:09.409Z,23.05
2018-08-22T07:52:09.337Z,23.10
2018-08-22T07:53:09.290Z,23.13
2018-08-22T07:54:09.206Z,23.23
2018-08-22T07:55:09.133Z,23.25
2018-08-22T07:56:09.063Z,23.32
2018-08-22T07:57:08.996Z,23.35
2018-08-22T07:58:08.928Z,23.40
2018-08-22T07:59:08.862Z,23.43
2018-08-22T08:00:09.085Z,23.42
2018-08-22T08:01:08.952Z,23.50
2018-08-22T08:02:08.654Z,23.47
2018-08-22T08:03:08.584Z,23.50
2018-08-22T08:04:08.514Z,23.53
2018-08-22T08:05:08.446Z,23.58
2018-08-22T08:06:08.377Z,23.70
2018-08-22T08:07:08.308Z,23.69
2018-08-22T08:08:09.537Z,23.78
2018-08-22T08:10:08.117Z,23.91
2018-08-22T08:11:08.038Z,23.94
2018-08-22T08:12:07.968Z,24.03
2018-08-22T08:13:07.901Z,24.05
2018-08-22T08:14:07.833Z,24.16
2018-08-22T08:15:07.764Z,24.12
2018-08-22T08:16:07.693Z,24.28
2018-08-22T08:17:07.686Z,24.22
2018-08-22T08:18:07.568Z,24.34
2018-08-22T08:19:07.489Z,24.24
2018-08-22T08:20:07.423Z,24.30
2018-08-22T08:21:07.363Z,24.34
2018-08-22T08:22:07.287Z,24.42
2018-08-22T08:23:07.215Z,24.45
2018-08-22T08:24:07.152Z,24.55
2018-08-22T08:25:07.084Z,24.45
2018-08-22T08:26:07.034Z,24.58
2018-08-22T08:27:06.952Z,24.61
2018-08-22T08:28:06.884Z,24.65
2018-08-22T08:29:06.812Z,24.71
2018-08-22T08:30:06.749Z,24.71
2018-08-22T08:31:06.681Z,24.76
2018-08-22T08:32:06.609Z,24.85
2018-08-22T08:33:06.541Z,24.90
2018-08-22T08:34:06.482Z,24.85
2018-08-22T08:35:06.419Z,24.88
2018-08-22T08:36:06.381Z,24.85
2018-08-22T08:37:06.271Z,24.78
2018-08-22T08:38:06.211Z,24.88
2018-08-22T08:39:06.141Z,24.98
2018-08-22T08:40:06.072Z,25.03
2018-08-22T08:41:06.001Z,25.00
2018-08-22T08:42:05.938Z,25.13
2018-08-22T08:43:05.868Z,25.21
2018-08-22T08:44:05.803Z,25.20
2018-08-22T08:45:05.734Z,25.23
2018-08-22T08:46:05.670Z,25.33
2018-08-22T08:47:05.603Z,25.25
2018-08-22T08:48:05.534Z,25.28
2018-08-22T08:49:05.468Z,25.35
2018-08-22T08:50:05.401Z,25.58
2018-08-22T08:51:05.335Z,25.61
2018-08-22T08:52:05.292Z,25.58
2018-08-22T08:53:05.219Z,25.73
2018-08-22T08:54:05.135Z,25.98
2018-08-22T08:55:05.064Z,26.20
2018-08-22T08:56:04.998Z,26.25
2018-08-22T08:57:04.965Z,26.29
2018-08-22T08:58:04.869Z,26.26
2018-08-22T08:59:04.847Z,26.35
2018-08-22T09:00:04.735Z,26.39
2018-08-22T09:01:04.664Z,26.52
2018-08-22T09:02:04.611Z,26.66
2018-08-22T09:03:04.532Z,26.73
2018-08-22T09:04:04.587Z,26.89
2018-08-22T09:05:04.428Z,26.88
2018-08-22T09:06:04.336Z,26.99
2018-08-22T09:07:04.268Z,26.87
2018-08-22T09:08:04.200Z,26.81
2018-08-22T09:09:04.136Z,26.75
2018-08-22T09:10:04.085Z,26.87
2018-08-22T09:11:04.006Z,26.85
2018-08-22T09:12:03.948Z,27.21
2018-08-22T09:13:03.873Z,27.47
2018-08-22T09:14:03.807Z,27.49
2018-08-22T09:15:03.744Z,27.43
2018-08-22T09:16:03.676Z,27.54
2018-08-22T09:17:03.611Z,27.66
2018-08-22T09:18:03.547Z,27.51
2018-08-22T09:19:03.482Z,27.67
2018-08-22T09:20:03.424Z,27.81
2018-08-22T09:21:03.363Z,27.78
2018-08-22T09:22:03.294Z,28.06
2018-08-22T09:23:03.226Z,27.99
2018-08-22T09:24:03.192Z,28.18
2018-08-22T09:25:03.108Z,28.43
2018-08-22T09:31:29.223Z,30.67
2018-08-22T09:32:29.143Z,31.02
2018-08-22T09:34:21.955Z,31.85
2018-08-22T09:35:21.904Z,32.18
2018-08-22T09:37:14.638Z,33.31
2018-08-22T09:38:14.573Z,33.69
2018-08-22T09:40:07.400Z,34.28
2018-08-22T09:41:07.292Z,34.49
2018-08-22T09:43:00.074Z,33.31
2018-08-22T09:44:00.004Z,33.11
2018-08-22T09:45:52.793Z,32.84
2018-08-22T09:46:52.867Z,32.93
2018-08-22T09:48:46.284Z,32.51
2018-08-22T09:49:46.209Z,33.11
2018-08-22T09:51:38.993Z,32.99
2018-08-22T09:52:38.950Z,33.21
2018-08-22T09:54:31.739Z,33.32
2018-08-22T09:55:31.654Z,32.81
2018-08-22T09:57:24.444Z,32.57
2018-08-22T09:58:24.378Z,32.63
2018-08-22T10:00:17.249Z,31.92
2018-08-22T10:01:17.101Z,31.34
2018-08-22T10:03:10.090Z,30.65
2018-08-22T10:04:10.020Z,30.67
2018-08-22T10:06:02.807Z,31.23
2018-08-22T10:07:02.796Z,31.35
2018-08-22T10:08:55.541Z,31.78
2018-08-22T10:09:55.517Z,31.88
2018-08-22T10:11:48.502Z,31.19
2018-08-22T10:12:48.444Z,31.12
2018-08-22T10:14:41.242Z,31.92
2018-08-22T10:15:41.154Z,32.21
2018-08-22T10:17:33.937Z,32.29
2018-08-22T10:18:33.872Z,31.99
2018-08-22T10:20:26.667Z,32.01
2018-08-22T10:21:26.593Z,31.63
2018-08-22T10:23:19.591Z,31.86
2018-08-22T10:24:19.557Z,32.14
2018-08-22T10:26:12.300Z,32.13
2018-08-22T10:27:12.234Z,32.37
2018-08-22T10:29:05.028Z,32.32
2018-08-22T10:30:04.956Z,31.91
2018-08-22T10:31:57.745Z,31.62
2018-08-22T10:32:57.732Z,31.23
2018-08-22T10:34:50.701Z,30.39
2018-08-22T10:35:50.627Z,30.35
2018-08-22T10:37:43.698Z,30.01
2018-08-22T10:38:43.632Z,29.80
2018-08-22T10:40:36.430Z,29.63
2018-08-22T10:41:36.357Z,29.51
2018-08-22T10:43:29.150Z,29.36
2018-08-22T10:44:29.133Z,29.34
2018-08-22T10:46:21.848Z,29.73
2018-08-22T10:47:21.780Z,29.76
2018-08-22T10:49:15.062Z,29.73
2018-08-22T10:50:14.990Z,29.57
2018-08-22T10:52:07.776Z,29.51
2018-08-22T10:53:07.711Z,29.28
2018-08-22T10:55:00.509Z,29.02
2018-08-22T10:56:00.424Z,28.86
2018-08-22T10:57:53.195Z,29.11
2018-08-22T10:58:53.127Z,29.16
2018-08-22T11:00:46.277Z,29.57
2018-08-22T11:01:46.212Z,29.82
2018-08-22T11:03:38.989Z,29.82
2018-08-22T11:04:38.914Z,29.73
2018-08-22T11:06:31.690Z,29.52
2018-08-22T11:07:31.622Z,29.55
2018-08-22T11:09:24.400Z,29.83
2018-08-22T11:10:24.325Z,30.01
2018-08-22T11:12:17.093Z,30.01
2018-08-22T11:13:17.027Z,30.08
2018-08-22T11:15:10.012Z,30.10
2018-08-22T11:16:10.035Z,30.16
2018-08-22T11:18:02.719Z,30.11
2018-08-22T11:19:02.647Z,30.01
2018-08-22T11:20:55.444Z,30.01
2018-08-22T11:21:55.363Z,30.15
2018-08-22T11:23:48.387Z,30.38
2018-08-22T11:24:48.312Z,30.57
2018-08-22T11:26:41.137Z,30.42
2018-08-22T11:27:41.017Z,30.49
2018-08-22T11:29:33.799Z,30.65
2018-08-22T11:30:33.728Z,30.67
2018-08-22T11:32:26.505Z,30.58
2018-08-22T11:33:26.430Z,30.62
2018-08-22T11:35:19.218Z,30.80
2018-08-22T11:36:19.140Z,30.73
2018-08-22T11:38:12.116Z,30.64
2018-08-22T11:39:12.047Z,30.67
2018-08-22T11:41:04.834Z,30.73
2018-08-22T11:42:04.759Z,30.77
2018-08-22T11:43:57.540Z,30.38
2018-08-22T11:44:57.465Z,30.53
2018-08-22T11:46:50.283Z,30.54
2018-08-22T11:47:50.175Z,30.58
2018-08-22T11:49:42.960Z,30.54
2018-08-22T11:50:42.881Z,30.55
2018-08-22T11:52:35.667Z,30.46
2018-08-22T11:53:35.601Z,30.45
2018-08-22T11:55:28.385Z,30.10
2018-08-22T11:56:28.310Z,30.05
2018-08-22T11:58:21.083Z,30.11
2018-08-22T11:59:21.012Z,30.05
2018-08-22T12:01:13.805Z,30.04
2018-08-22T12:02:13.730Z,30.11
2018-08-22T12:04:06.513Z,30.22
2018-08-22T12:05:06.433Z,30.39
2018-08-22T12:06:59.422Z,30.37
2018-08-22T12:07:59.345Z,30.49
2018-08-22T12:09:52.360Z,30.69
2018-08-22T12:10:52.292Z,30.67
2018-08-22T12:12:45.305Z,30.72
2018-08-22T12:13:45.237Z,30.83
2018-08-22T12:15:38.018Z,30.99
2018-08-22T12:16:37.943Z,31.02
2018-08-22T12:18:30.712Z,30.91
2018-08-22T12:19:30.647Z,30.92
2018-08-22T12:21:23.430Z,30.94
2018-08-22T12:22:23.354Z,30.95
2018-08-22T12:24:16.150Z,30.91
2018-08-22T12:25:16.056Z,30.88
2018-08-22T12:27:08.831Z,30.94
2018-08-22T12:28:08.761Z,30.88
2018-08-22T12:30:01.546Z,30.92
2018-08-22T12:31:01.472Z,30.86
2018-08-22T12:32:54.241Z,30.57
2018-08-22T12:33:54.172Z,30.60
2018-08-22T12:35:47.206Z,30.67
2018-08-22T12:36:47.132Z,30.69
2018-08-22T12:38:39.907Z,30.91
2018-08-22T12:39:39.839Z,30.86
2018-08-22T12:41:32.614Z,31.02
2018-08-22T12:42:32.537Z,31.01
2018-08-22T12:44:25.342Z,31.07
2018-08-22T12:45:25.247Z,30.89
2018-08-22T12:47:18.030Z,30.84
2018-08-22T12:48:17.953Z,30.88
2018-08-22T12:50:10.739Z,31.01
2018-08-22T12:51:10.658Z,30.99
2018-08-22T12:53:03.643Z,31.04
2018-08-22T12:54:03.571Z,31.01
2018-08-22T12:55:56.353Z,30.83
2018-08-22T12:56:56.282Z,30.83
2018-08-22T12:58:56.606Z,30.89
2018-08-22T12:59:49.249Z,30.91
2018-08-22T13:01:42.809Z,31.13
2018-08-22T13:02:42.727Z,31.12
2018-08-22T13:04:35.563Z,31.14
2018-08-22T13:05:35.434Z,31.16
2018-08-22T13:07:28.214Z,31.21
2018-08-22T13:08:28.153Z,31.26
2018-08-22T13:10:20.931Z,31.32
2018-08-22T13:11:20.858Z,31.36
2018-08-22T13:13:13.641Z,31.51
2018-08-22T13:14:13.558Z,31.57
2018-08-22T13:16:06.348Z,32.01
2018-08-22T13:17:06.322Z,32.25
2018-08-22T13:18:59.050Z,32.57
2018-08-22T13:19:58.972Z,32.67
2018-08-22T13:21:52.003Z,32.81
2018-08-22T13:22:51.917Z,32.65
2018-08-22T13:24:44.728Z,32.60
2018-08-22T13:25:44.627Z,32.63
2018-08-22T13:27:37.621Z,32.78
2018-08-22T13:28:37.548Z,32.82
2018-08-22T13:30:30.484Z,32.77
2018-08-22T13:31:30.264Z,33.04
2018-08-22T13:33:23.078Z,33.12
2018-08-22T13:34:23.015Z,33.21
2018-08-22T13:36:15.839Z,33.07
2018-08-22T13:37:15.726Z,33.00
2018-08-22T13:39:08.717Z,33.01
2018-08-22T13:40:08.654Z,32.96
2018-08-22T13:42:01.448Z,32.77
2018-08-22T13:43:01.375Z,32.77
2018-08-22T13:44:54.158Z,32.70
2018-08-22T13:45:54.085Z,32.63
2018-08-22T13:47:47.120Z,32.29
2018-08-22T13:48:47.046Z,32.26
2018-08-22T13:50:39.850Z,32.47
2018-08-22T13:51:39.760Z,32.29
2018-08-22T13:53:32.547Z,32.29
2018-08-22T13:54:32.481Z,32.41
2018-08-22T13:56:25.348Z,32.43
2018-08-22T13:57:25.214Z,32.45
2018-08-22T13:59:18.197Z,32.60
2018-08-22T14:00:18.128Z,32.65
2018-08-22T14:02:10.914Z,31.54
2018-08-22T14:03:10.837Z,31.43
2018-08-22T14:05:03.648Z,31.62
2018-08-22T14:06:03.559Z,31.91
2018-08-22T14:07:56.330Z,32.23
2018-08-22T14:08:56.264Z,32.40
2018-08-22T14:10:49.286Z,32.74
2018-08-22T14:11:49.212Z,32.87
2018-08-22T14:13:42.290Z,33.31
2018-08-22T14:14:42.221Z,33.29
2018-08-22T14:16:35.005Z,34.31
2018-08-22T14:17:34.929Z,34.43
2018-08-22T14:19:27.711Z,34.85
2018-08-22T14:20:27.648Z,35.31
2018-08-22T14:22:20.450Z,35.66
2018-08-22T14:23:20.363Z,35.71
2018-08-22T14:25:13.159Z,35.70
2018-08-22T14:26:13.072Z,35.84
2018-08-22T14:28:05.880Z,36.17
2018-08-22T14:29:05.789Z,36.53
2018-08-22T14:30:58.610Z,36.34
2018-08-22T14:31:58.561Z,36.38
2018-08-22T14:33:51.417Z,36.98
2018-08-22T14:34:51.258Z,37.43
2018-08-22T14:36:44.670Z,37.44
2018-08-22T14:37:44.598Z,37.79
2018-08-22T14:39:37.384Z,37.63
2018-08-22T14:40:37.338Z,37.74
2018-08-22T14:42:30.120Z,37.88
2018-08-22T14:43:30.053Z,37.56
2018-08-22T14:45:22.866Z,37.36
2018-08-22T14:46:22.787Z,37.66
2018-08-22T14:48:15.576Z,37.50
2018-08-22T14:49:15.517Z,37.55
2018-08-22T14:51:08.516Z,37.89
2018-08-22T14:52:08.436Z,38.11
2018-08-22T14:54:01.293Z,38.69
2018-08-22T14:55:01.237Z,39.03
2018-08-22T14:56:54.053Z,38.88
2018-08-22T14:57:53.961Z,39.07
2018-08-22T14:59:46.987Z,38.75
2018-08-22T15:00:46.924Z,38.90
2018-08-22T15:02:39.869Z,39.17
2018-08-22T15:03:39.818Z,38.76
2018-08-22T15:05:32.754Z,38.72
2018-08-22T15:06:32.694Z,38.37
2018-08-22T15:08:25.537Z,38.50
2018-08-22T15:09:25.540Z,37.78
2018-08-22T15:11:18.264Z,37.34
2018-08-22T15:12:18.195Z,36.85
2018-08-22T15:14:10.984Z,36.98
2018-08-22T15:15:10.929Z,37.09
2018-08-22T15:17:03.727Z,36.43
2018-08-22T15:18:03.659Z,36.95
2018-08-22T15:19:56.442Z,37.74
2018-08-22T15:20:56.378Z,37.85
2018-08-22T15:22:49.422Z,37.91
2018-08-22T15:23:49.347Z,38.23
2018-08-22T15:25:42.383Z,37.49
2018-08-22T15:26:42.399Z,37.55
2018-08-22T15:28:35.374Z,37.43
2018-08-22T15:29:35.305Z,37.46